Time,TemperatureF,DewpointF,PressureIn,WindDirection,WindDirectionDegrees,WindSpeedMPH,WindSpeedGustMPH,Humidity,HourlyPrecipIn,Conditions,Clouds,dailyrainin,SolarRadiationWatts/m^2,SoftwareType,DateUTC
2013-04-10 00:02:00,25.0,20.0,-100.00,NNW,335,11.0,22.0,80,0.00,,,0.18,0.000000,,2013-04-10 06:02:00,
2013-04-10 00:12:00,25.0,20.0,-100.00,NNW,335,11.0,22.0,80,0.00,,,0.18,0.000000,,2013-04-10 06:12:00,
2013-04-10 00:22:00,25.0,20.0,-100.00,NNW,335,11.0,22.0,80,0.00,,,0.18,0.000000,,2013-04-10 06:22:00,
2013-04-10 00:30:00,24.0,17.0,-100.00,North,349,8.0,27.0,75,0.00,,,-99.99,0.000000,,2013-04-10 06:30:00,
2013-04-10 00:52:00,24.0,17.0,-100.00,North,349,8.0,27.0,75,0.00,,,-99.99,0.000000,,2013-04-10 06:52:00,
2013-04-10 01:02:00,24.0,17.0,-100.00,North,349,8.0,27.0,75,0.00,,,-99.99,0.000000,,2013-04-10 07:02:00,
2013-04-10 01:12:00,24.0,17.0,-100.00,North,349,8.0,27.0,75,0.00,,,-99.99,0.000000,,2013-04-10 07:12:00,
2013-04-10 01:22:00,24.0,17.0,-100.00,North,349,8.0,27.0,75,0.00,,,-99.99,0.000000,,2013-04-10 07:22:00,
2013-04-10 01:30:00,23.0,15.0,-100.00,North,7,3.0,12.0,71,0.00,,,0.18,0.000000,,2013-04-10 07:30:00,
2013-04-10 01:52:00,23.0,15.0,-100.00,North,7,3.0,12.0,71,0.00,,,0.18,0.000000,,2013-04-10 07:52:00,
2013-04-10 02:02:00,23.0,15.0,-100.00,North,7,3.0,12.0,71,0.00,,,0.18,0.000000,,2013-04-10 08:02:00,
2013-04-10 02:12:00,23.0,15.0,-100.00,North,7,3.0,12.0,71,0.00,,,0.18,0.000000,,2013-04-10 08:12:00,
2013-04-10 02:22:00,23.0,15.0,-100.00,North,7,3.0,12.0,71,0.00,,,0.18,0.000000,,2013-04-10 08:22:00,
2013-04-10 02:30:00,22.0,15.0,-100.00,NW,324,9.0,18.0,74,0.00,,,0.18,0.000000,,2013-04-10 08:30:00,
2013-04-10 02:52:00,22.0,15.0,-100.00,NW,324,9.0,18.0,74,0.00,,,0.18,0.000000,,2013-04-10 08:52:00,
2013-04-10 03:02:00,22.0,15.0,-100.00,NW,324,9.0,18.0,74,0.00,,,0.18,0.000000,,2013-04-10 09:02:00,
2013-04-10 03:12:00,22.0,15.0,-100.00,NW,324,9.0,18.0,74,0.00,,,0.18,0.000000,,2013-04-10 09:12:00,
2013-04-10 03:22:00,22.0,15.0,-100.00,NW,324,9.0,18.0,74,0.00,,,0.18,0.000000,,2013-04-10 09:22:00,
2013-04-10 03:30:00,21.0,14.0,-100.00,NNW,331,8.0,21.0,75,0.00,,,0.18,0.000000,,2013-04-10 09:30:00,
2013-04-10 03:53:00,21.0,14.0,-100.00,NNW,331,8.0,21.0,75,0.00,,,0.18,0.000000,,2013-04-10 09:53:00,
2013-04-10 04:02:00,21.0,14.0,-100.00,NNW,331,8.0,21.0,75,0.00,,,0.18,0.000000,,2013-04-10 10:02:00,
2013-04-10 04:12:00,21.0,14.0,-100.00,NNW,331,8.0,21.0,75,0.00,,,0.18,0.000000,,2013-04-10 10:12:00,
2013-04-10 04:23:00,21.0,14.0,-100.00,NNW,331,8.0,21.0,75,0.00,,,0.18,0.000000,,2013-04-10 10:23:00,
2013-04-10 04:30:00,19.0,13.0,-100.00,NNW,329,8.0,17.0,77,0.00,,,0.18,0.000000,,2013-04-10 10:30:00,
2013-04-10 04:52:00,19.0,13.0,-100.00,NNW,329,8.0,17.0,77,0.00,,,0.18,0.000000,,2013-04-10 10:52:00,
2013-04-10 05:02:00,19.0,13.0,-100.00,NNW,329,8.0,17.0,77,0.00,,,0.18,0.000000,,2013-04-10 11:02:00,
2013-04-10 05:12:00,19.0,13.0,-100.00,NNW,329,8.0,17.0,77,0.00,,,0.18,0.000000,,2013-04-10 11:12:00,
2013-04-10 05:22:00,19.0,13.0,-100.00,NNW,329,8.0,17.0,77,0.00,,,0.18,0.000000,,2013-04-10 11:22:00,
2013-04-10 07:30:00,19.0,14.0,-100.00,SW,219,0.0,4.0,79,-99.99,,,0.18,28.000000,,2013-04-10 13:30:00,
2013-04-10 07:53:00,19.0,14.0,-100.00,SW,219,0.0,4.0,79,-99.99,,,0.18,28.000000,,2013-04-10 13:53:00,
2013-04-10 08:02:00,19.0,14.0,-100.00,SW,219,0.0,4.0,79,-99.99,,,0.18,28.000000,,2013-04-10 14:02:00,
2013-04-10 08:12:00,19.0,14.0,-100.00,SW,219,0.0,4.0,79,-99.99,,,0.18,28.000000,,2013-04-10 14:12:00,
2013-04-10 08:22:00,19.0,14.0,-100.00,SW,219,0.0,4.0,79,-99.99,,,0.18,28.000000,,2013-04-10 14:22:00,
2013-04-10 08:30:00,24.0,15.0,-100.00,NNW,341,4.0,7.0,68,0.00,,,0.18,265.000000,,2013-04-10 14:30:00,
2013-04-10 08:52:00,24.0,15.0,-100.00,NNW,341,4.0,7.0,68,0.00,,,0.18,265.000000,,2013-04-10 14:52:00,
2013-04-10 09:02:00,24.0,15.0,-100.00,NNW,341,4.0,7.0,68,0.00,,,0.18,265.000000,,2013-04-10 15:02:00,
2013-04-10 09:12:00,24.0,15.0,-100.00,NNW,341,4.0,7.0,68,0.00,,,0.18,265.000000,,2013-04-10 15:12:00,
2013-04-10 09:22:00,24.0,15.0,-100.00,NNW,341,4.0,7.0,68,0.00,,,0.18,265.000000,,2013-04-10 15:22:00,
2013-04-10 09:30:00,24.0,16.0,-100.00,North,352,7.0,13.0,70,0.00,,,0.18,287.000000,,2013-04-10 15:30:00,
2013-04-10 09:52:00,24.0,16.0,-100.00,North,352,7.0,13.0,70,0.00,,,0.18,287.000000,,2013-04-10 15:52:00,
2013-04-10 10:02:00,24.0,16.0,-100.00,North,352,7.0,13.0,70,0.00,,,0.18,287.000000,,2013-04-10 16:02:00,
2013-04-10 10:12:00,24.0,16.0,-100.00,North,352,7.0,13.0,70,0.00,,,0.18,287.000000,,2013-04-10 16:12:00,
2013-04-10 10:23:00,24.0,16.0,-100.00,North,352,7.0,13.0,70,0.00,,,0.18,287.000000,,2013-04-10 16:23:00,
2013-04-10 10:30:00,29.0,19.0,-100.00,North,7,5.0,10.0,65,0.00,,,0.13,489.000000,,2013-04-10 16:30:00,
2013-04-10 10:53:00,29.0,19.0,-100.00,North,7,5.0,10.0,65,0.00,,,0.13,489.000000,,2013-04-10 16:53:00,
2013-04-10 11:02:00,29.0,19.0,-100.00,North,7,5.0,10.0,65,0.00,,,0.13,489.000000,,2013-04-10 17:02:00,
2013-04-10 11:12:00,29.0,19.0,-100.00,North,7,5.0,10.0,65,0.00,,,0.13,489.000000,,2013-04-10 17:12:00,
2013-04-10 11:22:00,29.0,19.0,-100.00,North,7,5.0,10.0,65,0.00,,,0.13,489.000000,,2013-04-10 17:22:00,
2013-04-10 11:30:00,30.0,19.0,-100.00,NW,316,9.0,16.0,64,0.00,,,0.11,469.000000,,2013-04-10 17:30:00,
2013-04-10 11:52:00,30.0,19.0,-100.00,NW,316,9.0,16.0,64,0.00,,,0.11,469.000000,,2013-04-10 17:52:00,
2013-04-10 12:02:00,30.0,19.0,-100.00,NW,316,9.0,16.0,64,0.00,,,0.11,469.000000,,2013-04-10 18:02:00,
2013-04-10 12:12:00,30.0,19.0,-100.00,NW,316,9.0,16.0,64,0.00,,,0.11,469.000000,,2013-04-10 18:12:00,
2013-04-10 12:22:00,30.0,19.0,-100.00,NW,316,9.0,16.0,64,0.00,,,0.11,469.000000,,2013-04-10 18:22:00,
2013-04-10 12:30:00,33.0,21.0,-100.00,NW,325,9.0,18.0,60,0.00,,,0.08,626.000000,,2013-04-10 18:30:00,
2013-04-10 12:52:00,33.0,21.0,-100.00,NW,325,9.0,18.0,60,0.00,,,0.08,626.000000,,2013-04-10 18:52:00,
2013-04-10 13:03:00,33.0,21.0,-100.00,NW,325,9.0,18.0,60,0.00,,,0.08,626.000000,,2013-04-10 19:03:00,
2013-04-10 13:12:00,33.0,21.0,-100.00,NW,325,9.0,18.0,60,0.00,,,0.08,626.000000,,2013-04-10 19:12:00,
2013-04-10 13:22:00,33.0,21.0,-100.00,NW,325,9.0,18.0,60,0.00,,,0.08,626.000000,,2013-04-10 19:22:00,
2013-04-10 13:30:00,36.0,21.0,-100.00,North,355,6.0,18.0,55,0.00,,,0.03,1079.000000,,2013-04-10 19:30:00,
2013-04-10 13:53:00,36.0,21.0,-100.00,North,355,6.0,18.0,55,0.00,,,0.03,1079.000000,,2013-04-10 19:53:00,
2013-04-10 14:02:00,36.0,21.0,-100.00,North,355,6.0,18.0,55,0.00,,,0.03,1079.000000,,2013-04-10 20:02:00,
2013-04-10 14:12:00,36.0,21.0,-100.00,North,355,6.0,18.0,55,0.00,,,0.03,1079.000000,,2013-04-10 20:12:00,
2013-04-10 14:22:00,36.0,21.0,-100.00,North,355,6.0,18.0,55,0.00,,,0.03,1079.000000,,2013-04-10 20:22:00,
2013-04-10 14:30:00,40.0,21.0,-100.00,NNW,327,8.0,18.0,47,0.00,,,0.01,1044.000000,,2013-04-10 20:30:00,
2013-04-10 15:02:00,40.0,21.0,-100.00,NNW,327,8.0,18.0,47,0.00,,,0.01,1044.000000,,2013-04-10 21:02:00,
2013-04-10 15:12:00,40.0,21.0,-100.00,NNW,327,8.0,18.0,47,0.00,,,0.01,1044.000000,,2013-04-10 21:12:00,
2013-04-10 15:22:00,40.0,21.0,-100.00,NNW,327,8.0,18.0,47,0.00,,,0.01,1044.000000,,2013-04-10 21:22:00,
2013-04-10 15:30:00,41.0,20.0,-100.00,NNW,328,11.0,23.0,43,0.00,,,0.01,980.000000,,2013-04-10 21:30:00,
2013-04-10 16:03:00,41.0,20.0,-100.00,NNW,328,11.0,23.0,43,0.00,,,0.01,980.000000,,2013-04-10 22:03:00,
2013-04-10 16:12:00,41.0,20.0,-100.00,NNW,328,11.0,23.0,43,0.00,,,0.01,980.000000,,2013-04-10 22:12:00,
2013-04-10 16:22:00,41.0,20.0,-100.00,NNW,328,11.0,23.0,43,0.00,,,0.01,980.000000,,2013-04-10 22:22:00,
2013-04-10 16:30:00,42.0,21.0,-100.00,NW,323,8.0,24.0,42,0.00,,,0.01,816.000000,,2013-04-10 22:30:00,
2013-04-10 17:02:00,42.0,21.0,-100.00,NW,323,8.0,24.0,42,0.00,,,0.01,816.000000,,2013-04-10 23:02:00,
2013-04-10 17:12:00,42.0,21.0,-100.00,NW,323,8.0,24.0,42,0.00,,,0.01,816.000000,,2013-04-10 23:12:00,
2013-04-10 17:22:00,42.0,21.0,-100.00,NW,323,8.0,24.0,42,0.00,,,0.01,816.000000,,2013-04-10 23:22:00,
2013-04-10 17:30:00,40.0,18.0,-100.00,NNW,337,11.0,21.0,41,0.00,,,0.00,601.000000,,2013-04-10 23:30:00,
2013-04-10 17:53:00,40.0,18.0,-100.00,NNW,337,11.0,21.0,41,0.00,,,0.00,601.000000,,2013-04-10 23:53:00,
2013-04-10 18:02:00,40.0,18.0,-100.00,NNW,337,11.0,21.0,41,0.00,,,0.00,601.000000,,2013-04-11 00:02:00,
2013-04-10 18:22:00,40.0,18.0,-100.00,NNW,337,11.0,21.0,41,0.00,,,0.00,601.000000,,2013-04-11 00:22:00,
2013-04-10 18:30:00,38.0,16.0,-100.00,NW,321,9.0,23.0,40,0.00,,,0.00,359.000000,,2013-04-11 00:30:00,
2013-04-10 18:53:00,38.0,16.0,-100.00,NW,321,9.0,23.0,40,0.00,,,0.00,359.000000,,2013-04-11 00:53:00,
2013-04-10 19:02:00,38.0,16.0,-100.00,NW,321,9.0,23.0,40,0.00,,,0.00,359.000000,,2013-04-11 01:02:00,
2013-04-10 19:12:00,38.0,16.0,-100.00,NW,321,9.0,23.0,40,0.00,,,0.00,359.000000,,2013-04-11 01:12:00,
2013-04-10 19:22:00,38.0,16.0,-100.00,NW,321,9.0,23.0,40,0.00,,,0.00,359.000000,,2013-04-11 01:22:00,
2013-04-10 19:30:00,35.0,13.0,-100.00,NW,326,7.0,18.0,40,0.00,,,0.00,107.000000,,2013-04-11 01:30:00,
2013-04-10 19:52:00,35.0,13.0,-100.00,NW,326,7.0,18.0,40,0.00,,,0.00,107.000000,,2013-04-11 01:52:00,
2013-04-10 20:02:00,35.0,13.0,-100.00,NW,326,7.0,18.0,40,0.00,,,0.00,107.000000,,2013-04-11 02:02:00,
2013-04-10 20:12:00,35.0,13.0,-100.00,NW,326,7.0,18.0,40,0.00,,,0.00,107.000000,,2013-04-11 02:12:00,
2013-04-10 20:22:00,35.0,13.0,-100.00,NW,326,7.0,18.0,40,0.00,,,0.00,107.000000,,2013-04-11 02:22:00,
2013-04-10 20:30:00,33.0,12.0,-100.00,NNW,327,8.0,18.0,42,0.00,,,0.00,3.000000,,2013-04-11 02:30:00,
2013-04-10 20:53:00,33.0,12.0,-100.00,NNW,327,8.0,18.0,42,0.00,,,0.00,3.000000,,2013-04-11 02:53:00,
2013-04-10 21:02:00,33.0,12.0,-100.00,NNW,327,8.0,18.0,42,0.00,,,0.00,3.000000,,2013-04-11 03:02:00,
2013-04-10 21:12:00,33.0,12.0,-100.00,NNW,327,8.0,18.0,42,0.00,,,0.00,3.000000,,2013-04-11 03:12:00,
2013-04-10 21:22:00,33.0,12.0,-100.00,NNW,327,8.0,18.0,42,0.00,,,0.00,3.000000,,2013-04-11 03:22:00,
2013-04-10 21:30:00,31.0,13.0,-100.00,NNW,330,4.0,13.0,46,0.00,,,0.00,0.000000,,2013-04-11 03:30:00,
2013-04-10 22:03:00,31.0,13.0,-100.00,NNW,330,4.0,13.0,46,0.00,,,0.00,0.000000,,2013-04-11 04:03:00,
2013-04-10 22:12:00,31.0,13.0,-100.00,NNW,330,4.0,13.0,46,0.00,,,0.00,0.000000,,2013-04-11 04:12:00,
2013-04-10 22:22:00,31.0,13.0,-100.00,NNW,330,4.0,13.0,46,0.00,,,0.00,0.000000,,2013-04-11 04:22:00,
2013-04-10 22:30:00,30.0,13.0,-100.00,WNW,287,1.0,11.0,48,0.00,,,0.00,0.000000,,2013-04-11 04:30:00,
2013-04-10 22:53:00,30.0,13.0,-100.00,WNW,287,1.0,11.0,48,0.00,,,0.00,0.000000,,2013-04-11 04:53:00,
2013-04-10 23:02:00,30.0,13.0,-100.00,WNW,287,1.0,11.0,48,0.00,,,0.00,0.000000,,2013-04-11 05:02:00,
2013-04-10 23:12:00,30.0,13.0,-100.00,WNW,287,1.0,11.0,48,0.00,,,0.00,0.000000,,2013-04-11 05:12:00,
2013-04-10 23:22:00,30.0,13.0,-100.00,WNW,287,1.0,11.0,48,0.00,,,0.00,0.000000,,2013-04-11 05:22:00,
2013-04-10 23:30:00,29.0,12.0,-100.00,WSW,251,2.0,6.0,49,0.00,,,0.00,0.000000,,2013-04-11 05:30:00,
2013-04-10 23:52:00,29.0,12.0,-100.00,WSW,251,2.0,6.0,49,0.00,,,0.00,0.000000,,2013-04-11 05:52:00,